Signal Hill, Illinois
Current Conditions -  °F | °C
As of 6:53 PM on Friday 19 Dec 2014 (Local Time) from KCPS Reporting Station
Overcast Overcast  
Wind Chill: 32°   Ceiling: 6000
Heat Index: 36°   Visibility: 8mi
Dew Point: 29°   Wind: 5mph
Humidity: 76%   Direction: 90°E
Pressure: 30.27"   Gusts: NA
Location:  38.5251°N, 90.0796°W
Report Text: KCPS 200053Z 09004KT 8SM OVC060 02/M02 A3027 RMK AO2 SLP254 T00221017
Loading
Personal Weather Stations






























Interactive Weather Map New forecast layout! Learn more

10-Day Weather Forecast

Advertisements
Track Severe Weather on mobile